sensor_id;sensor_type;location;lat;lon;timestamp;P1;durP1;ratioP1;P2;durP2;ratioP2
20271;SDS011;10295;49.812;9.866;2023-08-21T00:00:56;16.05;;;7.57;;
20271;SDS011;10295;49.812;9.866;2023-08-21T00:03:23;13.63;;;7.78;;
20271;SDS011;10295;49.812;9.866;2023-08-21T00:05:51;14.25;;;7.50;;
20271;SDS011;10295;49.812;9.866;2023-08-21T00:08:18;15.55;;;7.85;;
20271;SDS011;10295;49.812;9.866;2023-08-21T00:10:46;15.07;;;7.88;;
20271;SDS011;10295;49.812;9.866;2023-08-21T00:13:13;16.45;;;7.80;;
20271;SDS011;10295;49.812;9.866;2023-08-21T00:15:41;14.82;;;7.78;;
20271;SDS011;10295;49.812;9.866;2023-08-21T00:18:08;12.93;;;7.38;;
20271;SDS011;10295;49.812;9.866;2023-08-21T00:20:35;13.32;;;7.22;;
20271;SDS011;10295;49.812;9.866;2023-08-21T00:23:02;16.13;;;8.05;;
20271;SDS011;10295;49.812;9.866;2023-08-21T00:25:30;15.63;;;7.93;;
20271;SDS011;10295;49.812;9.866;2023-08-21T00:27:57;12.85;;;8.15;;
20271;SDS011;10295;49.812;9.866;2023-08-21T00:30:24;15.55;;;7.68;;
20271;SDS011;10295;49.812;9.866;2023-08-21T00:32:51;18.75;;;8.13;;
20271;SDS011;10295;49.812;9.866;2023-08-21T00:35:18;15.80;;;8.13;;
20271;SDS011;10295;49.812;9.866;2023-08-21T00:37:46;13.63;;;7.65;;
20271;SDS011;10295;49.812;9.866;2023-08-21T00:40:13;16.13;;;7.90;;
20271;SDS011;10295;49.812;9.866;2023-08-21T00:42:40;17.88;;;8.30;;
20271;SDS011;10295;49.812;9.866;2023-08-21T00:45:07;16.85;;;8.15;;
20271;SDS011;10295;49.812;9.866;2023-08-21T00:47:35;15.05;;;8.20;;
20271;SDS011;10295;49.812;9.866;2023-08-21T00:50:02;14.00;;;8.45;;
20271;SDS011;10295;49.812;9.866;2023-08-21T00:52:30;15.57;;;7.90;;
20271;SDS011;10295;49.812;9.866;2023-08-21T00:54:57;16.25;;;8.30;;
20271;SDS011;10295;49.812;9.866;2023-08-21T00:57:24;19.25;;;8.35;;
20271;SDS011;10295;49.812;9.866;2023-08-21T00:59:53;16.50;;;8.77;;
20271;SDS011;10295;49.812;9.866;2023-08-21T01:02:20;16.60;;;8.40;;
20271;SDS011;10295;49.812;9.866;2023-08-21T01:04:48;15.82;;;8.80;;
20271;SDS011;10295;49.812;9.866;2023-08-21T01:10:43;16.13;;;9.07;;
20271;SDS011;10295;49.812;9.866;2023-08-21T01:13:17;19.13;;;8.65;;
20271;SDS011;10295;49.812;9.866;2023-08-21T01:15:46;14.27;;;8.73;;
20271;SDS011;10295;49.812;9.866;2023-08-21T01:18:14;15.20;;;8.30;;
20271;SDS011;10295;49.812;9.866;2023-08-21T01:20:42;16.17;;;8.73;;
20271;SDS011;10295;49.812;9.866;2023-08-21T01:23:09;16.67;;;9.07;;
20271;SDS011;10295;49.812;9.866;2023-08-21T01:25:36;16.58;;;8.43;;
20271;SDS011;10295;49.812;9.866;2023-08-21T01:28:04;16.60;;;8.82;;
20271;SDS011;10295;49.812;9.866;2023-08-21T01:30:31;15.85;;;8.55;;
20271;SDS011;10295;49.812;9.866;2023-08-21T01:33:06;14.65;;;8.98;;
20271;SDS011;10295;49.812;9.866;2023-08-21T01:35:34;16.95;;;9.55;;
20271;SDS011;10295;49.812;9.866;2023-08-21T01:38:02;14.55;;;9.82;;
20271;SDS011;10295;49.812;9.866;2023-08-21T01:40:30;15.32;;;9.93;;
20271;SDS011;10295;49.812;9.866;2023-08-21T01:42:57;15.68;;;9.68;;
20271;SDS011;10295;49.812;9.866;2023-08-21T01:45:24;17.48;;;9.98;;
20271;SDS011;10295;49.812;9.866;2023-08-21T01:47:52;17.33;;;9.43;;
20271;SDS011;10295;49.812;9.866;2023-08-21T01:50:19;15.43;;;9.23;;
20271;SDS011;10295;49.812;9.866;2023-08-21T01:52:46;19.95;;;9.73;;
20271;SDS011;10295;49.812;9.866;2023-08-21T01:55:13;16.63;;;9.90;;
20271;SDS011;10295;49.812;9.866;2023-08-21T01:57:40;20.38;;;9.45;;
20271;SDS011;10295;49.812;9.866;2023-08-21T02:00:08;19.17;;;9.98;;
20271;SDS011;10295;49.812;9.866;2023-08-21T02:02:36;14.88;;;9.57;;
20271;SDS011;10295;49.812;9.866;2023-08-21T02:05:03;16.08;;;9.75;;
20271;SDS011;10295;49.812;9.866;2023-08-21T02:07:31;17.35;;;10.45;;
20271;SDS011;10295;49.812;9.866;2023-08-21T02:09:58;19.50;;;10.35;;
20271;SDS011;10295;49.812;9.866;2023-08-21T02:12:26;22.27;;;11.00;;
20271;SDS011;10295;49.812;9.866;2023-08-21T02:14:53;20.65;;;10.48;;
20271;SDS011;10295;49.812;9.866;2023-08-21T02:17:20;17.20;;;10.52;;
20271;SDS011;10295;49.812;9.866;2023-08-21T02:19:47;16.67;;;10.57;;
20271;SDS011;10295;49.812;9.866;2023-08-21T02:22:14;16.98;;;10.23;;
20271;SDS011;10295;49.812;9.866;2023-08-21T02:24:41;18.98;;;10.65;;
20271;SDS011;10295;49.812;9.866;2023-08-21T02:27:09;21.13;;;11.40;;
20271;SDS011;10295;49.812;9.866;2023-08-21T02:29:36;19.60;;;11.05;;
20271;SDS011;10295;49.812;9.866;2023-08-21T02:32:03;19.85;;;10.68;;
20271;SDS011;10295;49.812;9.866;2023-08-21T02:34:30;21.45;;;11.25;;
20271;SDS011;10295;49.812;9.866;2023-08-21T02:36:57;16.65;;;10.23;;
20271;SDS011;10295;49.812;9.866;2023-08-21T02:39:24;18.58;;;11.23;;
20271;SDS011;10295;49.812;9.866;2023-08-21T02:41:52;15.60;;;11.02;;
20271;SDS011;10295;49.812;9.866;2023-08-21T02:44:19;17.67;;;10.80;;
20271;SDS011;10295;49.812;9.866;2023-08-21T02:46:46;19.05;;;11.30;;
20271;SDS011;10295;49.812;9.866;2023-08-21T02:49:13;19.17;;;11.40;;
20271;SDS011;10295;49.812;9.866;2023-08-21T02:51:40;17.92;;;11.52;;
20271;SDS011;10295;49.812;9.866;2023-08-21T02:54:08;20.48;;;11.27;;
20271;SDS011;10295;49.812;9.866;2023-08-21T02:56:35;20.73;;;10.77;;
20271;SDS011;10295;49.812;9.866;2023-08-21T02:59:03;19.50;;;11.30;;
20271;SDS011;10295;49.812;9.866;2023-08-21T03:01:30;17.80;;;11.45;;
20271;SDS011;10295;49.812;9.866;2023-08-21T03:03:57;16.83;;;11.30;;
20271;SDS011;10295;49.812;9.866;2023-08-21T03:06:24;19.77;;;11.43;;
20271;SDS011;10295;49.812;9.866;2023-08-21T03:08:51;17.88;;;11.32;;
20271;SDS011;10295;49.812;9.866;2023-08-21T03:11:19;16.70;;;11.18;;
20271;SDS011;10295;49.812;9.866;2023-08-21T03:13:46;20.08;;;11.35;;
20271;SDS011;10295;49.812;9.866;2023-08-21T03:16:13;18.95;;;11.65;;
20271;SDS011;10295;49.812;9.866;2023-08-21T03:18:56;20.08;;;11.52;;
20271;SDS011;10295;49.812;9.866;2023-08-21T03:21:24;17.00;;;11.60;;
20271;SDS011;10295;49.812;9.866;2023-08-21T03:23:55;20.48;;;12.07;;
20271;SDS011;10295;49.812;9.866;2023-08-21T03:26:23;20.05;;;11.85;;
20271;SDS011;10295;49.812;9.866;2023-08-21T03:28:50;15.38;;;10.55;;
20271;SDS011;10295;49.812;9.866;2023-08-21T03:31:17;20.65;;;11.35;;
20271;SDS011;10295;49.812;9.866;2023-08-21T03:33:45;18.52;;;11.68;;
20271;SDS011;10295;49.812;9.866;2023-08-21T03:36:13;18.63;;;11.07;;
20271;SDS011;10295;49.812;9.866;2023-08-21T03:38:40;21.35;;;11.15;;
20271;SDS011;10295;49.812;9.866;2023-08-21T03:41:07;17.73;;;11.18;;
20271;SDS011;10295;49.812;9.866;2023-08-21T03:43:34;22.77;;;12.10;;
20271;SDS011;10295;49.812;9.866;2023-08-21T03:46:02;21.17;;;11.65;;
20271;SDS011;10295;49.812;9.866;2023-08-21T03:48:29;19.48;;;11.60;;
20271;SDS011;10295;49.812;9.866;2023-08-21T03:50:56;20.45;;;12.35;;
20271;SDS011;10295;49.812;9.866;2023-08-21T03:53:23;19.65;;;12.13;;
20271;SDS011;10295;49.812;9.866;2023-08-21T03:55:51;24.73;;;12.30;;
20271;SDS011;10295;49.812;9.866;2023-08-21T03:58:18;19.55;;;11.85;;
20271;SDS011;10295;49.812;9.866;2023-08-21T04:00:45;26.23;;;13.02;;
20271;SDS011;10295;49.812;9.866;2023-08-21T04:03:12;20.25;;;12.30;;
20271;SDS011;10295;49.812;9.866;2023-08-21T04:05:40;19.05;;;11.85;;
20271;SDS011;10295;49.812;9.866;2023-08-21T04:08:07;20.15;;;12.18;;
20271;SDS011;10295;49.812;9.866;2023-08-21T04:10:34;21.08;;;12.40;;
20271;SDS011;10295;49.812;9.866;2023-08-21T04:13:01;22.55;;;13.23;;
20271;SDS011;10295;49.812;9.866;2023-08-21T04:15:29;21.48;;;12.00;;
20271;SDS011;10295;49.812;9.866;2023-08-21T04:17:56;22.80;;;12.40;;
20271;SDS011;10295;49.812;9.866;2023-08-21T04:20:24;20.48;;;12.02;;
20271;SDS011;10295;49.812;9.866;2023-08-21T04:22:51;23.63;;;12.30;;
20271;SDS011;10295;49.812;9.866;2023-08-21T04:25:18;20.23;;;12.45;;
20271;SDS011;10295;49.812;9.866;2023-08-21T04:27:45;19.58;;;12.55;;
20271;SDS011;10295;49.812;9.866;2023-08-21T04:30:12;19.73;;;12.30;;
20271;SDS011;10295;49.812;9.866;2023-08-21T04:32:40;21.83;;;12.20;;
20271;SDS011;10295;49.812;9.866;2023-08-21T04:35:07;20.65;;;12.20;;
20271;SDS011;10295;49.812;9.866;2023-08-21T04:37:37;19.88;;;12.20;;
20271;SDS011;10295;49.812;9.866;2023-08-21T04:40:05;20.67;;;12.25;;
20271;SDS011;10295;49.812;9.866;2023-08-21T04:42:32;20.40;;;12.32;;
20271;SDS011;10295;49.812;9.866;2023-08-21T04:44:59;17.17;;;12.02;;
20271;SDS011;10295;49.812;9.866;2023-08-21T04:47:28;23.90;;;12.27;;
20271;SDS011;10295;49.812;9.866;2023-08-21T04:49:56;22.70;;;12.00;;
20271;SDS011;10295;49.812;9.866;2023-08-21T04:52:23;22.67;;;13.43;;
20271;SDS011;10295;49.812;9.866;2023-08-21T04:54:51;23.00;;;11.77;;
20271;SDS011;10295;49.812;9.866;2023-08-21T04:57:19;19.52;;;11.20;;
20271;SDS011;10295;49.812;9.866;2023-08-21T04:59:47;21.10;;;11.20;;
20271;SDS011;10295;49.812;9.866;2023-08-21T05:02:14;18.48;;;10.57;;
20271;SDS011;10295;49.812;9.866;2023-08-21T05:04:42;16.90;;;10.55;;
20271;SDS011;10295;49.812;9.866;2023-08-21T05:07:09;20.75;;;10.70;;
20271;SDS011;10295;49.812;9.866;2023-08-21T05:09:36;17.27;;;10.20;;
20271;SDS011;10295;49.812;9.866;2023-08-21T05:12:03;18.90;;;10.70;;
20271;SDS011;10295;49.812;9.866;2023-08-21T05:14:30;17.27;;;9.98;;
20271;SDS011;10295;49.812;9.866;2023-08-21T05:16:58;17.20;;;9.27;;
20271;SDS011;10295;49.812;9.866;2023-08-21T05:19:25;15.98;;;9.18;;
20271;SDS011;10295;49.812;9.866;2023-08-21T05:21:54;16.08;;;9.05;;
20271;SDS011;10295;49.812;9.866;2023-08-21T05:24:21;14.15;;;8.63;;
20271;SDS011;10295;49.812;9.866;2023-08-21T05:26:48;18.15;;;8.82;;
20271;SDS011;10295;49.812;9.866;2023-08-21T05:29:15;19.13;;;7.97;;
20271;SDS011;10295;49.812;9.866;2023-08-21T05:31:42;15.30;;;7.88;;
20271;SDS011;10295;49.812;9.866;2023-08-21T05:34:10;13.75;;;8.02;;
20271;SDS011;10295;49.812;9.866;2023-08-21T05:36:37;14.00;;;7.65;;
20271;SDS011;10295;49.812;9.866;2023-08-21T05:39:04;15.57;;;7.97;;
20271;SDS011;10295;49.812;9.866;2023-08-21T05:41:32;23.25;;;8.20;;
20271;SDS011;10295;49.812;9.866;2023-08-21T05:43:59;14.18;;;7.55;;
20271;SDS011;10295;49.812;9.866;2023-08-21T05:46:27;14.05;;;7.13;;
20271;SDS011;10295;49.812;9.866;2023-08-21T05:48:54;15.27;;;7.43;;
20271;SDS011;10295;49.812;9.866;2023-08-21T05:51:21;12.35;;;7.53;;
20271;SDS011;10295;49.812;9.866;2023-08-21T05:53:48;18.83;;;7.35;;
20271;SDS011;10295;49.812;9.866;2023-08-21T05:56:15;13.23;;;6.90;;
20271;SDS011;10295;49.812;9.866;2023-08-21T05:58:42;13.18;;;6.95;;
20271;SDS011;10295;49.812;9.866;2023-08-21T06:01:10;15.73;;;6.90;;
20271;SDS011;10295;49.812;9.866;2023-08-21T06:03:37;13.88;;;6.80;;
20271;SDS011;10295;49.812;9.866;2023-08-21T06:06:05;13.95;;;6.43;;
20271;SDS011;10295;49.812;9.866;2023-08-21T06:08:32;11.43;;;6.50;;
20271;SDS011;10295;49.812;9.866;2023-08-21T06:10:59;14.00;;;6.60;;
20271;SDS011;10295;49.812;9.866;2023-08-21T06:13:26;16.33;;;6.15;;
20271;SDS011;10295;49.812;9.866;2023-08-21T06:15:54;11.38;;;6.18;;
20271;SDS011;10295;49.812;9.866;2023-08-21T06:18:21;12.93;;;6.82;;
20271;SDS011;10295;49.812;9.866;2023-08-21T06:20:48;14.57;;;6.30;;
20271;SDS011;10295;49.812;9.866;2023-08-21T06:23:20;16.88;;;6.20;;
20271;SDS011;10295;49.812;9.866;2023-08-21T06:25:48;13.02;;;6.25;;
20271;SDS011;10295;49.812;9.866;2023-08-21T06:28:15;11.77;;;5.53;;
20271;SDS011;10295;49.812;9.866;2023-08-21T06:30:42;12.88;;;6.03;;
20271;SDS011;10295;49.812;9.866;2023-08-21T06:33:10;11.30;;;5.78;;
20271;SDS011;10295;49.812;9.866;2023-08-21T06:35:37;15.13;;;6.20;;
20271;SDS011;10295;49.812;9.866;2023-08-21T06:38:05;15.90;;;6.10;;
20271;SDS011;10295;49.812;9.866;2023-08-21T06:40:32;11.32;;;6.07;;
20271;SDS011;10295;49.812;9.866;2023-08-21T06:42:59;11.18;;;6.10;;
20271;SDS011;10295;49.812;9.866;2023-08-21T06:45:26;15.30;;;6.60;;
20271;SDS011;10295;49.812;9.866;2023-08-21T06:47:56;11.00;;;6.20;;
20271;SDS011;10295;49.812;9.866;2023-08-21T06:50:24;12.25;;;5.90;;
20271;SDS011;10295;49.812;9.866;2023-08-21T06:52:51;12.80;;;5.93;;
20271;SDS011;10295;49.812;9.866;2023-08-21T06:55:18;11.77;;;6.30;;
20271;SDS011;10295;49.812;9.866;2023-08-21T06:57:45;12.73;;;6.43;;
20271;SDS011;10295;49.812;9.866;2023-08-21T07:00:12;13.73;;;6.60;;
20271;SDS011;10295;49.812;9.866;2023-08-21T07:02:40;13.20;;;6.45;;
20271;SDS011;10295;49.812;9.866;2023-08-21T07:05:07;11.70;;;6.07;;
20271;SDS011;10295;49.812;9.866;2023-08-21T07:07:37;13.20;;;6.07;;
20271;SDS011;10295;49.812;9.866;2023-08-21T07:10:05;13.45;;;6.20;;
20271;SDS011;10295;49.812;9.866;2023-08-21T07:12:32;11.48;;;6.05;;
20271;SDS011;10295;49.812;9.866;2023-08-21T07:14:59;13.82;;;6.50;;
20271;SDS011;10295;49.812;9.866;2023-08-21T07:17:26;11.75;;;6.35;;
20271;SDS011;10295;49.812;9.866;2023-08-21T07:19:53;11.75;;;5.88;;
20271;SDS011;10295;49.812;9.866;2023-08-21T07:22:20;15.30;;;6.60;;
20271;SDS011;10295;49.812;9.866;2023-08-21T07:24:48;13.93;;;6.57;;
20271;SDS011;10295;49.812;9.866;2023-08-21T07:27:15;11.13;;;6.63;;
20271;SDS011;10295;49.812;9.866;2023-08-21T07:29:42;12.55;;;7.20;;
20271;SDS011;10295;49.812;9.866;2023-08-21T07:32:09;10.32;;;6.80;;
20271;SDS011;10295;49.812;9.866;2023-08-21T07:34:36;11.07;;;6.78;;
20271;SDS011;10295;49.812;9.866;2023-08-21T07:37:04;12.93;;;6.97;;
20271;SDS011;10295;49.812;9.866;2023-08-21T07:39:31;12.07;;;6.93;;
20271;SDS011;10295;49.812;9.866;2023-08-21T07:41:58;13.90;;;7.82;;
20271;SDS011;10295;49.812;9.866;2023-08-21T07:44:26;16.17;;;8.65;;
20271;SDS011;10295;49.812;9.866;2023-08-21T07:46:53;14.15;;;7.75;;
20271;SDS011;10295;49.812;9.866;2023-08-21T07:49:20;14.00;;;8.70;;
20271;SDS011;10295;49.812;9.866;2023-08-21T07:51:48;13.57;;;9.57;;
20271;SDS011;10295;49.812;9.866;2023-08-21T07:54:15;13.30;;;8.38;;
20271;SDS011;10295;49.812;9.866;2023-08-21T07:56:42;15.38;;;9.00;;
20271;SDS011;10295;49.812;9.866;2023-08-21T07:59:09;15.20;;;8.48;;
20271;SDS011;10295;49.812;9.866;2023-08-21T08:01:36;14.25;;;9.50;;
20271;SDS011;10295;49.812;9.866;2023-08-21T08:04:03;13.35;;;8.13;;
20271;SDS011;10295;49.812;9.866;2023-08-21T08:06:31;18.27;;;9.48;;
20271;SDS011;10295;49.812;9.866;2023-08-21T08:08:59;14.93;;;8.90;;
20271;SDS011;10295;49.812;9.866;2023-08-21T08:11:26;15.77;;;9.35;;
20271;SDS011;10295;49.812;9.866;2023-08-21T08:13:53;14.10;;;8.95;;
20271;SDS011;10295;49.812;9.866;2023-08-21T08:16:20;13.07;;;8.88;;
20271;SDS011;10295;49.812;9.866;2023-08-21T08:18:48;12.70;;;8.40;;
20271;SDS011;10295;49.812;9.866;2023-08-21T08:21:15;15.25;;;8.65;;
20271;SDS011;10295;49.812;9.866;2023-08-21T08:23:43;14.63;;;8.63;;
20271;SDS011;10295;49.812;9.866;2023-08-21T08:26:10;15.65;;;8.90;;
20271;SDS011;10295;49.812;9.866;2023-08-21T08:28:38;15.18;;;8.52;;
20271;SDS011;10295;49.812;9.866;2023-08-21T08:31:05;14.18;;;8.30;;
20271;SDS011;10295;49.812;9.866;2023-08-21T08:33:32;15.90;;;8.35;;
20271;SDS011;10295;49.812;9.866;2023-08-21T08:36:00;13.63;;;8.60;;
20271;SDS011;10295;49.812;9.866;2023-08-21T08:38:27;18.15;;;8.30;;
20271;SDS011;10295;49.812;9.866;2023-08-21T08:40:54;14.52;;;7.97;;
20271;SDS011;10295;49.812;9.866;2023-08-21T08:43:22;15.25;;;8.27;;
20271;SDS011;10295;49.812;9.866;2023-08-21T08:45:51;14.27;;;7.55;;
20271;SDS011;10295;49.812;9.866;2023-08-21T08:48:20;14.30;;;8.15;;
20271;SDS011;10295;49.812;9.866;2023-08-21T08:50:47;13.30;;;8.07;;
20271;SDS011;10295;49.812;9.866;2023-08-21T08:53:14;15.20;;;7.70;;
20271;SDS011;10295;49.812;9.866;2023-08-21T08:55:43;20.90;;;7.85;;
20271;SDS011;10295;49.812;9.866;2023-08-21T08:58:10;16.27;;;7.22;;
20271;SDS011;10295;49.812;9.866;2023-08-21T09:00:37;18.30;;;7.88;;
20271;SDS011;10295;49.812;9.866;2023-08-21T09:03:05;16.35;;;8.02;;
20271;SDS011;10295;49.812;9.866;2023-08-21T09:05:33;19.55;;;8.38;;
20271;SDS011;10295;49.812;9.866;2023-08-21T09:10:38;15.75;;;7.28;;
20271;SDS011;10295;49.812;9.866;2023-08-21T09:13:23;16.60;;;8.43;;
20271;SDS011;10295;49.812;9.866;2023-08-21T09:15:55;16.25;;;7.47;;
20271;SDS011;10295;49.812;9.866;2023-08-21T09:18:22;16.10;;;7.80;;
20271;SDS011;10295;49.812;9.866;2023-08-21T09:20:50;15.82;;;8.07;;
20271;SDS011;10295;49.812;9.866;2023-08-21T09:23:18;13.85;;;8.05;;
20271;SDS011;10295;49.812;9.866;2023-08-21T09:25:46;14.82;;;8.10;;
20271;SDS011;10295;49.812;9.866;2023-08-21T09:28:14;14.50;;;8.30;;
20271;SDS011;10295;49.812;9.866;2023-08-21T09:30:46;13.68;;;7.43;;
20271;SDS011;10295;49.812;9.866;2023-08-21T09:33:16;13.05;;;7.32;;
20271;SDS011;10295;49.812;9.866;2023-08-21T09:35:43;13.48;;;6.75;;
20271;SDS011;10295;49.812;9.866;2023-08-21T09:38:11;13.13;;;6.78;;
20271;SDS011;10295;49.812;9.866;2023-08-21T09:40:41;12.52;;;5.95;;
20271;SDS011;10295;49.812;9.866;2023-08-21T09:43:10;11.25;;;5.28;;
20271;SDS011;10295;49.812;9.866;2023-08-21T09:45:38;11.20;;;4.70;;
20271;SDS011;10295;49.812;9.866;2023-08-21T09:48:06;11.93;;;4.35;;
20271;SDS011;10295;49.812;9.866;2023-08-21T09:50:34;8.20;;;3.70;;
20271;SDS011;10295;49.812;9.866;2023-08-21T09:53:01;12.02;;;4.20;;
20271;SDS011;10295;49.812;9.866;2023-08-21T09:55:29;8.73;;;3.90;;
20271;SDS011;10295;49.812;9.866;2023-08-21T09:58:00;10.60;;;4.30;;
20271;SDS011;10295;49.812;9.866;2023-08-21T10:00:32;10.52;;;4.28;;
20271;SDS011;10295;49.812;9.866;2023-08-21T10:03:00;8.93;;;4.35;;
20271;SDS011;10295;49.812;9.866;2023-08-21T10:05:29;10.13;;;4.47;;
20271;SDS011;10295;49.812;9.866;2023-08-21T10:07:59;12.55;;;4.75;;
20271;SDS011;10295;49.812;9.866;2023-08-21T10:10:29;12.35;;;4.93;;
20271;SDS011;10295;49.812;9.866;2023-08-21T10:12:56;9.82;;;4.35;;
20271;SDS011;10295;49.812;9.866;2023-08-21T10:15:24;10.48;;;4.07;;
20271;SDS011;10295;49.812;9.866;2023-08-21T10:17:52;10.18;;;4.18;;
20271;SDS011;10295;49.812;9.866;2023-08-21T10:20:22;12.98;;;4.35;;
20271;SDS011;10295;49.812;9.866;2023-08-21T10:22:52;8.02;;;4.10;;
20271;SDS011;10295;49.812;9.866;2023-08-21T10:25:24;9.57;;;3.90;;
20271;SDS011;10295;49.812;9.866;2023-08-21T10:27:55;8.60;;;3.78;;
20271;SDS011;10295;49.812;9.866;2023-08-21T10:30:23;9.70;;;4.15;;
20271;SDS011;10295;49.812;9.866;2023-08-21T10:32:52;7.63;;;3.70;;
20271;SDS011;10295;49.812;9.866;2023-08-21T10:35:20;9.25;;;3.20;;
20271;SDS011;10295;49.812;9.866;2023-08-21T10:40:34;11.77;;;4.30;;
20271;SDS011;10295;49.812;9.866;2023-08-21T10:43:02;9.45;;;3.97;;
20271;SDS011;10295;49.812;9.866;2023-08-21T10:45:29;8.63;;;3.80;;
20271;SDS011;10295;49.812;9.866;2023-08-21T10:47:57;8.43;;;3.67;;
20271;SDS011;10295;49.812;9.866;2023-08-21T10:50:25;8.88;;;3.95;;
20271;SDS011;10295;49.812;9.866;2023-08-21T10:52:53;8.98;;;4.15;;
20271;SDS011;10295;49.812;9.866;2023-08-21T10:55:20;9.30;;;4.25;;
20271;SDS011;10295;49.812;9.866;2023-08-21T10:57:48;8.60;;;4.20;;
20271;SDS011;10295;49.812;9.866;2023-08-21T11:00:16;11.95;;;4.50;;
20271;SDS011;10295;49.812;9.866;2023-08-21T11:02:44;8.45;;;3.95;;
20271;SDS011;10295;49.812;9.866;2023-08-21T11:05:13;9.95;;;4.60;;
20271;SDS011;10295;49.812;9.866;2023-08-21T11:07:41;11.77;;;4.40;;
20271;SDS011;10295;49.812;9.866;2023-08-21T11:10:17;8.25;;;4.00;;
20271;SDS011;10295;49.812;9.866;2023-08-21T11:12:51;9.73;;;4.13;;
20271;SDS011;10295;49.812;9.866;2023-08-21T11:15:19;10.75;;;3.85;;
20271;SDS011;10295;49.812;9.866;2023-08-21T11:17:58;8.27;;;3.72;;
20271;SDS011;10295;49.812;9.866;2023-08-21T11:20:27;10.50;;;4.20;;
20271;SDS011;10295;49.812;9.866;2023-08-21T11:23:01;9.43;;;4.15;;
20271;SDS011;10295;49.812;9.866;2023-08-21T11:25:29;9.32;;;4.20;;
20271;SDS011;10295;49.812;9.866;2023-08-21T11:27:57;10.40;;;4.30;;
20271;SDS011;10295;49.812;9.866;2023-08-21T11:30:24;12.07;;;4.35;;
20271;SDS011;10295;49.812;9.866;2023-08-21T11:33:07;9.32;;;4.15;;
20271;SDS011;10295;49.812;9.866;2023-08-21T11:35:35;10.35;;;4.30;;
20271;SDS011;10295;49.812;9.866;2023-08-21T11:38:03;10.10;;;4.50;;
20271;SDS011;10295;49.812;9.866;2023-08-21T11:40:36;10.63;;;4.60;;
20271;SDS011;10295;49.812;9.866;2023-08-21T11:43:03;10.35;;;4.43;;
20271;SDS011;10295;49.812;9.866;2023-08-21T11:45:35;9.32;;;4.25;;
20271;SDS011;10295;49.812;9.866;2023-08-21T11:48:22;11.13;;;4.43;;
20271;SDS011;10295;49.812;9.866;2023-08-21T11:50:49;10.93;;;4.10;;
20271;SDS011;10295;49.812;9.866;2023-08-21T11:53:29;9.50;;;3.92;;
20271;SDS011;10295;49.812;9.866;2023-08-21T11:55:56;8.10;;;4.20;;
20271;SDS011;10295;49.812;9.866;2023-08-21T11:58:25;10.93;;;4.05;;
20271;SDS011;10295;49.812;9.866;2023-08-21T12:00:53;9.88;;;3.97;;
20271;SDS011;10295;49.812;9.866;2023-08-21T12:03:20;10.07;;;4.10;;
20271;SDS011;10295;49.812;9.866;2023-08-21T12:05:47;8.20;;;4.00;;
20271;SDS011;10295;49.812;9.866;2023-08-21T12:08:14;10.02;;;4.18;;
20271;SDS011;10295;49.812;9.866;2023-08-21T12:10:42;8.15;;;4.05;;
20271;SDS011;10295;49.812;9.866;2023-08-21T12:13:09;9.63;;;4.35;;
20271;SDS011;10295;49.812;9.866;2023-08-21T12:15:36;12.45;;;4.35;;
20271;SDS011;10295;49.812;9.866;2023-08-21T12:18:03;8.20;;;4.00;;
20271;SDS011;10295;49.812;9.866;2023-08-21T12:20:31;9.25;;;4.15;;
20271;SDS011;10295;49.812;9.866;2023-08-21T12:22:58;10.10;;;4.05;;
20271;SDS011;10295;49.812;9.866;2023-08-21T12:25:26;10.75;;;3.95;;
20271;SDS011;10295;49.812;9.866;2023-08-21T12:27:53;9.55;;;4.03;;
20271;SDS011;10295;49.812;9.866;2023-08-21T12:30:34;9.88;;;4.07;;
20271;SDS011;10295;49.812;9.866;2023-08-21T12:33:02;10.63;;;3.70;;
20271;SDS011;10295;49.812;9.866;2023-08-21T12:35:47;9.55;;;3.95;;
20271;SDS011;10295;49.812;9.866;2023-08-21T12:38:14;11.07;;;3.92;;
20271;SDS011;10295;49.812;9.866;2023-08-21T12:40:42;9.18;;;4.13;;
20271;SDS011;10295;49.812;9.866;2023-08-21T12:43:09;8.30;;;4.20;;
20271;SDS011;10295;49.812;9.866;2023-08-21T12:45:36;7.70;;;3.40;;
20271;SDS011;10295;49.812;9.866;2023-08-21T12:48:04;7.50;;;3.30;;
20271;SDS011;10295;49.812;9.866;2023-08-21T12:50:31;7.28;;;3.72;;
20271;SDS011;10295;49.812;9.866;2023-08-21T12:52:59;8.68;;;3.50;;
20271;SDS011;10295;49.812;9.866;2023-08-21T12:55:26;9.75;;;3.78;;
20271;SDS011;10295;49.812;9.866;2023-08-21T12:57:53;8.23;;;3.50;;
20271;SDS011;10295;49.812;9.866;2023-08-21T13:00:21;10.70;;;3.47;;
20271;SDS011;10295;49.812;9.866;2023-08-21T13:02:49;8.93;;;3.53;;
20271;SDS011;10295;49.812;9.866;2023-08-21T13:05:16;9.48;;;3.40;;
20271;SDS011;10295;49.812;9.866;2023-08-21T13:07:43;8.70;;;3.08;;
20271;SDS011;10295;49.812;9.866;2023-08-21T13:10:10;8.93;;;3.20;;
20271;SDS011;10295;49.812;9.866;2023-08-21T13:12:38;9.70;;;3.53;;
20271;SDS011;10295;49.812;9.866;2023-08-21T13:15:05;9.20;;;3.60;;
20271;SDS011;10295;49.812;9.866;2023-08-21T13:17:36;8.27;;;3.60;;
20271;SDS011;10295;49.812;9.866;2023-08-21T13:20:03;8.57;;;3.30;;
20271;SDS011;10295;49.812;9.866;2023-08-21T13:22:46;9.75;;;3.50;;
20271;SDS011;10295;49.812;9.866;2023-08-21T13:25:15;7.53;;;3.53;;
20271;SDS011;10295;49.812;9.866;2023-08-21T13:27:42;10.23;;;3.47;;
20271;SDS011;10295;49.812;9.866;2023-08-21T13:30:10;8.77;;;3.30;;
20271;SDS011;10295;49.812;9.866;2023-08-21T13:32:37;7.80;;;3.28;;
20271;SDS011;10295;49.812;9.866;2023-08-21T13:35:05;7.40;;;3.30;;
20271;SDS011;10295;49.812;9.866;2023-08-21T13:37:36;8.20;;;3.33;;
20271;SDS011;10295;49.812;9.866;2023-08-21T13:40:04;7.53;;;3.35;;
20271;SDS011;10295;49.812;9.866;2023-08-21T13:42:42;7.32;;;3.35;;
20271;SDS011;10295;49.812;9.866;2023-08-21T13:45:14;7.97;;;3.20;;
20271;SDS011;10295;49.812;9.866;2023-08-21T13:47:43;7.65;;;3.03;;
20271;SDS011;10295;49.812;9.866;2023-08-21T13:50:10;7.60;;;3.65;;
20271;SDS011;10295;49.812;9.866;2023-08-21T13:52:38;9.50;;;3.58;;
20271;SDS011;10295;49.812;9.866;2023-08-21T13:55:07;8.68;;;3.55;;
20271;SDS011;10295;49.812;9.866;2023-08-21T13:57:34;10.32;;;3.83;;
20271;SDS011;10295;49.812;9.866;2023-08-21T14:00:03;10.15;;;3.70;;
20271;SDS011;10295;49.812;9.866;2023-08-21T14:02:34;7.35;;;3.55;;
20271;SDS011;10295;49.812;9.866;2023-08-21T14:05:02;8.23;;;3.60;;
20271;SDS011;10295;49.812;9.866;2023-08-21T14:07:32;9.88;;;3.50;;
20271;SDS011;10295;49.812;9.866;2023-08-21T14:09:59;10.45;;;3.90;;
20271;SDS011;10295;49.812;9.866;2023-08-21T14:12:29;10.18;;;4.15;;
20271;SDS011;10295;49.812;9.866;2023-08-21T14:15:00;8.68;;;4.30;;
20271;SDS011;10295;49.812;9.866;2023-08-21T14:17:28;10.38;;;4.50;;
20271;SDS011;10295;49.812;9.866;2023-08-21T14:19:55;11.07;;;4.70;;
20271;SDS011;10295;49.812;9.866;2023-08-21T14:22:22;11.43;;;4.53;;
20271;SDS011;10295;49.812;9.866;2023-08-21T14:24:49;10.38;;;4.57;;
20271;SDS011;10295;49.812;9.866;2023-08-21T14:27:17;11.73;;;4.78;;
20271;SDS011;10295;49.812;9.866;2023-08-21T14:29:44;9.38;;;4.25;;
20271;SDS011;10295;49.812;9.866;2023-08-21T14:32:11;10.48;;;4.47;;
20271;SDS011;10295;49.812;9.866;2023-08-21T14:34:39;10.27;;;4.53;;
20271;SDS011;10295;49.812;9.866;2023-08-21T14:37:06;10.40;;;4.72;;
20271;SDS011;10295;49.812;9.866;2023-08-21T14:39:34;11.38;;;4.22;;
20271;SDS011;10295;49.812;9.866;2023-08-21T14:42:01;9.27;;;3.90;;
20271;SDS011;10295;49.812;9.866;2023-08-21T14:44:28;9.57;;;4.00;;
20271;SDS011;10295;49.812;9.866;2023-08-21T14:46:55;11.07;;;4.07;;